Time;durP1;ratioP1;P1;durP2;ratioP2;P2;SDS_P1;SDS_P2;PMS_P1;PMS_P2;Temp;Humidity;BMP_temperature;BMP_pressure;BME280_temperature;BME280_humidity;BME280_pressure;Samples;Min_cycle;Max_cycle;Signal;HPM_P1;HPM_P2
2021/05/23 00:00:53;;;;;;;4.50;2.00;;;11.40;99.90;;;;;;5025309;28;20241;-72
2021/05/23 00:03:19;;;;;;;4.67;2.57;;;11.40;99.90;;;;;;5020585;28;21128;-72
2021/05/23 00:05:46;;;;;;;6.43;2.30;;;11.30;99.90;;;;;;5024461;28;20188;-72
2021/05/23 00:08:15;;;;;;;4.87;2.40;;;11.30;99.90;;;;;;5025332;28;20231;-72
2021/05/23 00:10:46;;;;;;;3.83;2.13;;;11.30;99.90;;;;;;5029800;28;20705;-72
2021/05/23 00:13:13;;;;;;;3.20;2.07;;;11.40;99.90;;;;;;5018537;28;20715;-72
2021/05/23 00:15:46;;;;;;;3.20;2.23;;;11.30;99.90;;;;;;5021107;28;21163;-72
2021/05/23 00:18:12;;;;;;;3.30;2.30;;;11.50;99.90;;;;;;5025702;28;20701;-74
2021/05/23 00:20:38;;;;;;;6.13;2.30;;;11.30;99.90;;;;;;5026232;28;20666;-72
2021/05/23 00:23:05;;;;;;;4.90;2.50;;;11.30;99.90;;;;;;5024891;28;21174;-72
2021/05/23 00:25:31;;;;;;;4.00;2.60;;;11.30;99.90;;;;;;5028019;28;21188;-72
2021/05/23 00:27:57;;;;;;;6.00;2.50;;;11.30;99.90;;;;;;5023034;28;20619;-72
2021/05/23 00:30:23;;;;;;;4.67;2.30;;;11.20;99.90;;;;;;5022389;28;20622;-72
2021/05/23 00:32:50;;;;;;;5.03;2.40;;;11.20;99.90;;;;;;5019484;28;20961;-72
2021/05/23 00:35:16;;;;;;;3.93;2.20;;;11.20;99.90;;;;;;5021139;28;20610;-72
2021/05/23 00:37:42;;;;;;;4.20;2.03;;;11.30;99.90;;;;;;5024063;28;21281;-72
2021/05/23 00:40:08;;;;;;;3.53;2.27;;;11.30;99.90;;;;;;5023456;28;20707;-72
2021/05/23 00:42:34;;;;;;;3.47;2.73;;;11.20;99.90;;;;;;5019161;28;20665;-72
2021/05/23 00:45:00;;;;;;;5.27;2.13;;;11.30;99.90;;;;;;5027077;28;20641;-72
2021/05/23 00:47:26;;;;;;;3.83;2.00;;;11.30;99.90;;;;;;5023713;28;20720;-71
2021/05/23 00:49:52;;;;;;;2.40;2.13;;;11.30;99.90;;;;;;5020280;28;20647;-71
2021/05/23 00:52:17;;;;;;;7.87;2.50;;;11.30;99.90;;;;;;5020137;28;20196;-72
2021/05/23 00:54:43;;;;;;;6.07;3.30;;;11.20;99.90;;;;;;5024543;28;20259;-71
2021/05/23 00:57:08;;;;;;;5.70;2.90;;;11.10;99.90;;;;;;5027777;28;20208;-72
2021/05/23 00:59:34;;;;;;;2.53;2.30;;;11.20;99.90;;;;;;5026077;28;20232;-72
2021/05/23 01:02:00;;;;;;;3.20;2.33;;;11.10;99.90;;;;;;5025178;28;20275;-72
2021/05/23 01:04:25;;;;;;;4.63;2.03;;;11.10;99.90;;;;;;5025283;28;20303;-72
2021/05/23 01:06:51;;;;;;;4.67;2.23;;;11.10;99.90;;;;;;5019787;28;20739;-72
2021/05/23 01:09:17;;;;;;;7.53;2.70;;;11.10;99.90;;;;;;5024064;28;20236;-72
2021/05/23 01:11:44;;;;;;;4.57;2.20;;;11.10;99.90;;;;;;5026933;28;20234;-74
2021/05/23 01:14:32;;;;;;;4.47;1.93;;;11.10;99.90;;;;;;5026449;28;21060;-72
2021/05/23 01:16:58;;;;;;;4.10;2.20;;;11.10;99.90;;;;;;5024274;28;21041;-72
2021/05/23 01:19:33;;;;;;;5.70;2.20;;;11.30;99.90;;;;;;5026945;28;20673;-71
2021/05/23 01:22:21;;;;;;;5.80;2.50;;;11.20;99.90;;;;;;5031224;28;20611;-72
2021/05/23 01:25:04;;;;;;;2.40;2.20;;;11.20;99.90;;;;;;5024126;28;20769;-72
2021/05/23 01:27:44;;;;;;;4.80;2.30;;;11.20;99.90;;;;;;5023080;28;20705;-72
2021/05/23 01:30:17;;;;;;;3.20;2.10;;;11.20;99.90;;;;;;5021815;28;20619;-72
2021/05/23 01:32:45;;;;;;;5.80;2.50;;;11.20;99.90;;;;;;5025865;28;20713;-72
2021/05/23 01:35:17;;;;;;;3.00;2.10;;;11.10;99.90;;;;;;5024998;28;20614;-72
2021/05/23 01:37:59;;;;;;;4.27;2.70;;;11.10;99.90;;;;;;5023541;28;20642;-72
2021/05/23 01:40:25;;;;;;;3.67;2.73;;;11.20;99.90;;;;;;5022176;28;20607;-72
2021/05/23 01:42:51;;;;;;;4.63;2.57;;;11.20;99.90;;;;;;5022129;28;20642;-72
2021/05/23 01:45:17;;;;;;;3.57;2.47;;;11.10;99.90;;;;;;5017226;28;20610;-72
2021/05/23 01:47:44;;;;;;;4.93;2.40;;;11.20;99.90;;;;;;5027683;28;21013;-72
2021/05/23 01:50:10;;;;;;;3.10;2.47;;;11.10;99.90;;;;;;5023671;28;20623;-72
2021/05/23 01:52:45;;;;;;;3.00;2.20;;;11.20;99.90;;;;;;5023062;28;21226;-72
2021/05/23 01:55:11;;;;;;;3.00;2.33;;;11.20;99.90;;;;;;5007971;28;20635;-73
2021/05/23 01:57:36;;;;;;;4.67;1.80;;;11.10;99.90;;;;;;5004130;28;20731;-72
2021/05/23 02:00:05;;;;;;;5.23;2.87;;;11.20;99.90;;;;;;4998751;28;20782;-73
2021/05/23 02:02:31;;;;;;;4.00;2.40;;;11.30;99.90;;;;;;5005495;28;20196;-74
2021/05/23 02:04:57;;;;;;;4.27;3.00;;;11.20;99.90;;;;;;4995028;28;20644;-71
2021/05/23 02:07:22;;;;;;;3.27;2.60;;;11.20;99.90;;;;;;5004931;28;20575;-73
2021/05/23 02:09:50;;;;;;;3.30;2.13;;;11.10;99.90;;;;;;5002517;28;20262;-74
2021/05/23 02:12:15;;;;;;;3.03;2.13;;;11.10;99.90;;;;;;5006991;28;20196;-73
2021/05/23 02:14:41;;;;;;;4.63;2.10;;;11.00;99.90;;;;;;5012239;28;20656;-73
2021/05/23 02:17:07;;;;;;;3.87;2.43;;;11.10;99.90;;;;;;5010237;28;20216;-73
2021/05/23 02:19:32;;;;;;;3.87;2.37;;;11.10;99.90;;;;;;5003202;28;20212;-73
2021/05/23 02:21:58;;;;;;;6.17;2.57;;;11.00;99.90;;;;;;5010340;28;20185;-71
2021/05/23 02:24:23;;;;;;;4.40;2.67;;;11.00;99.90;;;;;;5002114;28;20213;-73
2021/05/23 02:26:49;;;;;;;5.07;2.53;;;11.00;99.90;;;;;;5001959;28;20189;-73
2021/05/23 02:29:15;;;;;;;3.87;2.60;;;11.00;99.90;;;;;;5005013;28;20294;-73
2021/05/23 02:31:40;;;;;;;3.10;2.00;;;11.00;99.90;;;;;;5005928;28;21080;-71
2021/05/23 02:34:06;;;;;;;5.33;2.40;;;11.00;99.90;;;;;;5001397;28;20630;-73
2021/05/23 02:36:32;;;;;;;3.40;2.50;;;11.00;99.90;;;;;;4995913;28;20196;-74
2021/05/23 02:38:57;;;;;;;3.83;2.73;;;11.00;99.90;;;;;;4996024;28;20220;-73
2021/05/23 02:41:25;;;;;;;6.07;2.67;;;11.00;99.90;;;;;;5001270;28;20433;-73
2021/05/23 02:43:51;;;;;;;3.83;2.17;;;10.90;99.90;;;;;;5000125;28;20319;-72
2021/05/23 02:46:16;;;;;;;3.87;2.57;;;10.90;99.90;;;;;;4999030;28;20611;-73
2021/05/23 02:48:42;;;;;;;3.20;1.93;;;10.90;99.90;;;;;;5002411;28;20223;-73
2021/05/23 02:51:10;;;;;;;3.70;2.30;;;10.90;99.90;;;;;;5003154;28;20221;-72
2021/05/23 02:53:35;;;;;;;4.53;2.03;;;10.90;99.90;;;;;;5006475;28;20816;-73
2021/05/23 02:56:03;;;;;;;5.87;1.97;;;10.90;99.90;;;;;;5001228;28;20688;-73
2021/05/23 02:58:31;;;;;;;4.47;2.30;;;10.90;99.90;;;;;;5005758;28;20228;-73
2021/05/23 03:00:57;;;;;;;3.47;2.67;;;10.90;99.90;;;;;;5007118;28;20656;-73
2021/05/23 03:03:22;;;;;;;3.73;2.33;;;10.80;99.90;;;;;;4999568;28;20635;-73
2021/05/23 03:05:48;;;;;;;3.80;2.57;;;10.80;99.90;;;;;;4994190;28;20544;-73
2021/05/23 03:08:14;;;;;;;3.50;2.70;;;10.80;99.90;;;;;;4998693;28;20236;-73
2021/05/23 03:10:46;;;;;;;4.57;2.77;;;10.80;99.90;;;;;;5002132;28;20968;-73
2021/05/23 03:13:12;;;;;;;3.10;2.40;;;10.70;99.90;;;;;;5007179;28;24971;-73
2021/05/23 03:15:39;;;;;;;2.80;2.40;;;10.70;99.90;;;;;;4990489;28;20620;-72
2021/05/23 03:18:05;;;;;;;5.60;3.10;;;10.60;99.90;;;;;;5003116;28;21105;-73
2021/05/23 03:20:32;;;;;;;5.33;3.30;;;10.70;99.90;;;;;;5003175;28;20616;-74
2021/05/23 03:22:59;;;;;;;4.60;2.73;;;10.60;99.90;;;;;;5002900;28;21244;-73
2021/05/23 03:25:26;;;;;;;6.90;3.27;;;10.60;99.90;;;;;;5000473;28;20611;-73
2021/05/23 03:27:52;;;;;;;5.60;2.80;;;10.60;99.90;;;;;;5005607;28;20629;-73
2021/05/23 03:30:39;;;;;;;2.63;1.93;;;10.60;99.90;;;;;;5021780;28;20694;-73
2021/05/23 03:33:05;;;;;;;4.70;2.87;;;10.60;99.90;;;;;;5018450;28;20661;-73
2021/05/23 03:35:31;;;;;;;2.93;2.40;;;10.50;99.90;;;;;;4995691;28;21003;-73
2021/05/23 03:37:57;;;;;;;3.70;2.60;;;10.50;99.90;;;;;;5002518;28;20661;-73
2021/05/23 03:40:23;;;;;;;4.63;2.70;;;10.50;99.90;;;;;;4996957;28;21007;-73
2021/05/23 03:42:49;;;;;;;6.37;2.80;;;10.40;99.90;;;;;;4999115;28;20661;-73
2021/05/23 03:45:17;;;;;;;4.00;2.40;;;10.40;99.90;;;;;;5006521;28;20302;-73
2021/05/23 03:47:43;;;;;;;4.47;2.30;;;10.40;99.90;;;;;;4998567;28;20673;-73
2021/05/23 03:50:10;;;;;;;5.93;3.10;;;10.40;99.90;;;;;;5001887;28;20627;-73
2021/05/23 03:52:36;;;;;;;7.13;3.00;;;10.40;99.90;;;;;;5000647;28;20631;-72
2021/05/23 03:55:03;;;;;;;4.60;2.83;;;10.10;99.90;;;;;;5013144;28;21081;-73
2021/05/23 03:57:28;;;;;;;3.60;2.80;;;10.50;99.90;;;;;;5000445;28;20253;-73
2021/05/23 03:59:54;;;;;;;4.60;2.67;;;10.50;99.90;;;;;;4997720;28;20754;-73
2021/05/23 04:02:19;;;;;;;4.23;2.60;;;10.50;99.90;;;;;;4998973;28;20508;-72
2021/05/23 04:04:47;;;;;;;3.57;2.77;;;10.50;99.90;;;;;;5002276;28;20256;-71
2021/05/23 04:07:18;;;;;;;8.70;3.20;;;10.50;99.90;;;;;;4994328;28;20201;-71
2021/05/23 04:09:45;;;;;;;5.60;2.83;;;10.50;99.90;;;;;;4999314;28;20648;-71
2021/05/23 04:12:14;;;;;;;7.67;3.20;;;10.50;99.90;;;;;;4994973;28;20923;-71
2021/05/23 04:14:39;;;;;;;4.60;2.57;;;10.40;99.90;;;;;;4999845;28;20647;-70
2021/05/23 04:17:05;;;;;;;6.07;3.00;;;10.40;99.90;;;;;;4994087;28;21016;-73
2021/05/23 04:19:30;;;;;;;7.43;3.10;;;10.60;99.90;;;;;;4998145;28;20204;-73
2021/05/23 04:21:56;;;;;;;4.33;2.87;;;10.50;99.90;;;;;;4998208;28;20575;-73
2021/05/23 04:24:21;;;;;;;4.10;3.00;;;10.50;99.90;;;;;;5003741;28;20713;-73
2021/05/23 04:26:47;;;;;;;4.83;2.83;;;10.50;99.90;;;;;;5001826;28;20193;-71
2021/05/23 04:29:13;;;;;;;4.50;3.10;;;10.40;99.90;;;;;;5003069;28;20225;-72
2021/05/23 04:31:38;;;;;;;5.83;4.30;;;10.40;99.90;;;;;;5012754;28;20204;-72
2021/05/23 04:34:04;;;;;;;3.10;2.53;;;10.40;99.90;;;;;;5014298;28;20228;-73
2021/05/23 04:36:29;;;;;;;3.90;2.70;;;10.40;99.90;;;;;;5012219;28;20212;-71
2021/05/23 04:38:55;;;;;;;6.87;2.73;;;10.40;99.90;;;;;;5012744;28;20247;-71
2021/05/23 04:41:20;;;;;;;4.90;2.70;;;10.30;99.90;;;;;;4999147;28;20181;-72
2021/05/23 04:43:46;;;;;;;4.57;3.20;;;10.30;99.90;;;;;;5000016;28;20895;-72
2021/05/23 04:46:11;;;;;;;8.33;2.60;;;10.30;99.90;;;;;;5076304;22;20295;-68
2021/05/23 04:48:37;;;;;;;5.27;3.13;;;10.30;99.90;;;;;;4999188;28;20202;-69
2021/05/23 04:51:03;;;;;;;5.10;2.53;;;10.30;99.90;;;;;;5001895;28;20653;-69
2021/05/23 04:53:28;;;;;;;4.57;2.80;;;10.30;99.90;;;;;;5006384;28;20247;-68
2021/05/23 04:55:54;;;;;;;4.83;3.03;;;10.40;99.90;;;;;;5013687;28;20200;-68
2021/05/23 04:58:19;;;;;;;4.07;2.80;;;10.30;99.90;;;;;;5003615;28;20279;-71
2021/05/23 05:00:45;;;;;;;5.20;2.30;;;10.40;99.90;;;;;;4996540;28;20193;-69
2021/05/23 05:03:10;;;;;;;2.60;2.20;;;10.40;99.90;;;;;;5008309;28;20687;-69
2021/05/23 05:05:36;;;;;;;7.20;3.20;;;10.40;99.90;;;;;;5008121;28;20189;-69
2021/05/23 05:08:01;;;;;;;3.23;2.93;;;10.50;99.90;;;;;;5003167;28;20219;-69
2021/05/23 05:10:27;;;;;;;4.20;2.80;;;10.50;99.90;;;;;;5006316;28;20784;-69
2021/05/23 05:12:52;;;;;;;6.20;2.77;;;10.50;99.90;;;;;;4998659;28;20189;-69
2021/05/23 05:15:18;;;;;;;4.80;2.67;;;10.50;99.90;;;;;;5004183;28;20200;-69
2021/05/23 05:17:43;;;;;;;8.20;3.00;;;10.50;99.90;;;;;;5000006;28;20216;-69
2021/05/23 05:20:10;;;;;;;9.23;2.67;;;10.50;99.90;;;;;;5002064;28;20193;-69
2021/05/23 05:22:39;;;;;;;4.03;2.50;;;10.50;99.90;;;;;;5005030;28;20568;-68
2021/05/23 05:25:06;;;;;;;5.53;2.67;;;10.60;99.90;;;;;;5007148;28;20655;-68
2021/05/23 05:27:31;;;;;;;5.27;2.50;;;10.50;99.90;;;;;;5017060;28;20749;-69
2021/05/23 05:29:59;;;;;;;5.40;2.90;;;10.50;99.90;;;;;;5007938;28;20754;-69
2021/05/23 05:32:25;;;;;;;7.50;2.90;;;10.60;99.90;;;;;;4997348;28;20199;-68
2021/05/23 05:34:51;;;;;;;4.27;2.27;;;10.60;99.90;;;;;;4996831;28;20635;-69
2021/05/23 05:37:16;;;;;;;6.90;3.03;;;10.70;99.90;;;;;;5001833;28;20213;-68
2021/05/23 05:39:42;;;;;;;5.43;2.40;;;10.80;99.90;;;;;;4999168;28;20350;-68
2021/05/23 05:42:08;;;;;;;5.20;2.40;;;10.80;99.90;;;;;;5003352;28;20189;-68
2021/05/23 05:44:36;;;;;;;4.83;2.50;;;10.80;99.90;;;;;;5012455;28;20813;-69
2021/05/23 05:47:01;;;;;;;5.60;2.60;;;10.80;99.90;;;;;;5000509;28;20208;-68
2021/05/23 05:49:27;;;;;;;8.67;2.70;;;10.80;99.90;;;;;;5005544;28;20651;-68
2021/05/23 05:51:52;;;;;;;5.60;2.67;;;10.80;99.90;;;;;;5001288;28;20203;-68
2021/05/23 05:54:18;;;;;;;4.00;2.20;;;10.80;99.90;;;;;;4998732;28;20225;-69
2021/05/23 05:56:43;;;;;;;4.73;2.50;;;10.80;99.90;;;;;;4994854;28;20199;-69
2021/05/23 05:59:09;;;;;;;4.30;2.10;;;10.80;99.90;;;;;;4999143;28;20271;-69
2021/05/23 06:01:35;;;;;;;7.83;2.80;;;10.90;99.90;;;;;;4996462;28;20189;-69
2021/05/23 06:04:02;;;;;;;5.10;2.70;;;10.90;99.90;;;;;;4986182;28;20221;-69
2021/05/23 06:06:28;;;;;;;4.13;2.33;;;10.90;99.90;;;;;;4976796;28;20189;-69
2021/05/23 06:08:56;;;;;;;4.20;2.70;;;10.90;99.90;;;;;;4993398;28;20639;-69
2021/05/23 06:11:22;;;;;;;6.60;3.20;;;11.00;99.90;;;;;;4995915;28;20182;-69
2021/05/23 06:13:47;;;;;;;6.50;3.03;;;11.10;99.90;;;;;;4990572;28;20656;-69
2021/05/23 06:16:15;;;;;;;4.40;2.60;;;11.00;99.90;;;;;;5014613;28;20215;-69
2021/05/23 06:18:41;;;;;;;5.57;2.17;;;11.10;99.90;;;;;;5014194;28;20274;-69
2021/05/23 06:21:07;;;;;;;9.03;3.13;;;11.20;99.90;;;;;;5013735;28;20645;-69
2021/05/23 06:23:33;;;;;;;7.00;3.27;;;11.20;99.90;;;;;;5012729;28;20686;-69
2021/05/23 06:25:58;;;;;;;3.83;2.47;;;11.10;99.90;;;;;;5013734;28;21015;-69
2021/05/23 06:28:26;;;;;;;5.70;2.40;;;11.30;99.90;;;;;;5013328;28;20205;-69
2021/05/23 06:30:52;;;;;;;5.90;2.73;;;11.20;99.90;;;;;;5011825;28;20196;-69
2021/05/23 06:33:22;;;;;;;5.60;2.90;;;11.30;99.90;;;;;;5013031;28;20631;-69
2021/05/23 06:35:48;;;;;;;4.97;2.60;;;11.20;99.90;;;;;;5015933;28;20188;-69
2021/05/23 06:38:15;;;;;;;7.03;2.47;;;11.30;99.90;;;;;;5018868;28;20655;-69
2021/05/23 06:40:41;;;;;;;7.13;2.67;;;11.30;99.90;;;;;;5009131;28;20269;-69
2021/05/23 06:43:07;;;;;;;5.60;2.17;;;11.30;99.90;;;;;;5013703;28;20738;-69
2021/05/23 06:45:34;;;;;;;5.30;2.23;;;11.30;99.90;;;;;;5014222;28;20225;-69
2021/05/23 06:48:00;;;;;;;5.87;2.23;;;11.50;99.90;;;;;;5018373;28;20467;-69
2021/05/23 06:50:25;;;;;;;6.87;2.53;;;11.50;99.90;;;;;;5006095;28;20616;-68
2021/05/23 06:52:51;;;;;;;6.37;2.27;;;11.60;99.90;;;;;;5002229;28;20818;-69
2021/05/23 06:55:17;;;;;;;6.83;2.30;;;11.60;99.90;;;;;;5000094;28;20269;-69
2021/05/23 06:57:42;;;;;;;7.17;2.53;;;11.60;99.90;;;;;;4996771;28;20519;-69
2021/05/23 07:00:08;;;;;;;10.37;2.40;;;11.60;99.90;;;;;;5001654;28;20554;-68
2021/05/23 07:02:35;;;;;;;7.23;2.37;;;11.60;99.90;;;;;;5004742;28;20185;-68
2021/05/23 07:05:05;;;;;;;4.83;2.30;;;11.60;99.90;;;;;;4995748;28;20996;-68
2021/05/23 07:07:32;;;;;;;6.13;2.50;;;11.80;99.90;;;;;;4993500;28;21018;-70
2021/05/23 07:09:58;;;;;;;6.23;2.53;;;11.80;99.90;;;;;;5002085;28;20647;-69
2021/05/23 07:12:26;;;;;;;5.30;1.93;;;11.80;99.90;;;;;;5008010;28;20700;-69
2021/05/23 07:14:56;;;;;;;6.67;2.10;;;11.80;99.90;;;;;;5001711;28;21011;-70
2021/05/23 07:17:21;;;;;;;4.90;2.23;;;11.80;99.90;;;;;;5003840;28;20696;-70
2021/05/23 07:19:47;;;;;;;4.60;2.37;;;11.80;99.90;;;;;;5014039;28;20639;-70
2021/05/23 07:22:13;;;;;;;4.70;2.80;;;11.80;99.90;;;;;;4996315;28;20337;-70
2021/05/23 07:24:41;;;;;;;4.70;2.43;;;11.90;99.90;;;;;;4972248;28;20209;-69
2021/05/23 07:27:07;;;;;;;5.10;2.20;;;11.90;99.90;;;;;;4992278;28;20242;-68
2021/05/23 07:29:32;;;;;;;5.80;2.07;;;11.90;99.90;;;;;;4997429;28;20991;-68
2021/05/23 07:31:58;;;;;;;7.10;2.70;;;12.00;99.90;;;;;;4996264;28;20612;-69
2021/05/23 07:34:24;;;;;;;5.30;2.60;;;12.00;99.90;;;;;;4999578;28;20310;-69
2021/05/23 07:36:49;;;;;;;4.93;3.10;;;12.00;99.90;;;;;;5005984;28;20628;-69
2021/05/23 07:39:15;;;;;;;4.63;2.17;;;12.10;99.90;;;;;;5010359;28;20201;-68
2021/05/23 07:41:41;;;;;;;5.93;2.40;;;12.10;99.90;;;;;;5021395;28;20243;-70
2021/05/23 07:44:09;;;;;;;3.50;2.13;;;12.20;99.90;;;;;;5005892;28;20646;-69
2021/05/23 07:46:34;;;;;;;4.60;2.10;;;12.20;99.90;;;;;;5006554;28;20234;-69
2021/05/23 07:49:00;;;;;;;3.67;2.00;;;12.30;99.90;;;;;;5007856;28;21087;-69
2021/05/23 07:51:25;;;;;;;7.77;2.27;;;12.30;99.90;;;;;;5003993;28;20768;-69
2021/05/23 07:53:51;;;;;;;4.33;1.90;;;12.30;99.90;;;;;;5006800;28;20295;-69
2021/05/23 07:56:18;;;;;;;3.93;2.07;;;12.30;99.90;;;;;;5014279;28;20184;-69
2021/05/23 07:58:45;;;;;;;3.33;2.20;;;12.30;99.90;;;;;;5018830;28;20695;-69
2021/05/23 08:01:12;;;;;;;3.83;2.03;;;12.50;99.90;;;;;;5007428;28;20616;-69
2021/05/23 08:03:39;;;;;;;6.67;2.30;;;12.50;99.90;;;;;;5002394;28;20626;-69
2021/05/23 08:06:08;;;;;;;4.23;1.70;;;12.50;99.90;;;;;;5002121;28;20626;-69
2021/05/23 08:08:37;;;;;;;5.43;2.00;;;12.60;99.90;;;;;;4999344;28;20957;-69
2021/05/23 08:11:03;;;;;;;5.53;1.70;;;12.70;99.90;;;;;;5005620;28;20623;-69
2021/05/23 08:13:31;;;;;;;5.60;1.87;;;12.70;99.90;;;;;;5004223;28;20638;-69
2021/05/23 08:15:58;;;;;;;4.50;2.10;;;12.70;99.90;;;;;;5002387;28;20642;-69
2021/05/23 08:18:30;;;;;;;4.43;2.23;;;12.80;99.90;;;;;;5011381;28;20762;-69
2021/05/23 08:21:00;;;;;;;3.37;2.10;;;12.80;99.90;;;;;;5006473;28;20626;-68
2021/05/23 08:23:30;;;;;;;3.80;2.20;;;12.70;99.90;;;;;;5003319;28;20678;-68
2021/05/23 08:25:58;;;;;;;3.60;2.43;;;12.70;99.90;;;;;;5009441;28;20627;-68
2021/05/23 08:28:27;;;;;;;4.40;2.30;;;12.60;99.90;;;;;;5006925;28;21256;-68
2021/05/23 08:30:57;;;;;;;3.57;2.17;;;12.60;99.90;;;;;;5016342;28;21179;-68
2021/05/23 08:33:23;;;;;;;4.40;2.00;;;12.50;99.90;;;;;;5016418;28;20662;-68
2021/05/23 08:35:48;;;;;;;3.33;1.67;;;12.50;99.90;;;;;;5003523;28;21198;-68
2021/05/23 08:38:14;;;;;;;4.20;2.10;;;12.50;99.90;;;;;;5002771;28;20212;-68
2021/05/23 08:40:40;;;;;;;4.40;2.10;;;12.60;99.90;;;;;;5006597;28;20666;-68
2021/05/23 08:43:10;;;;;;;2.90;1.90;;;12.70;99.90;;;;;;5009366;28;20223;-68
2021/05/23 08:45:36;;;;;;;3.97;2.00;;;12.70;99.90;;;;;;5009586;28;20279;-68
2021/05/23 08:48:05;;;;;;;2.87;2.07;;;12.70;99.90;;;;;;5005724;28;20658;-69
2021/05/23 08:50:31;;;;;;;4.00;1.97;;;12.70;99.90;;;;;;5011272;28;21406;-68
2021/05/23 08:52:59;;;;;;;3.20;2.10;;;12.70;99.90;;;;;;4995163;28;20624;-68
2021/05/23 08:55:25;;;;;;;4.77;2.13;;;12.80;99.90;;;;;;5008028;28;20612;-68
2021/05/23 08:57:55;;;;;;;7.00;2.30;;;12.80;99.90;;;;;;5014361;28;20739;-68
2021/05/23 09:00:22;;;;;;;5.40;2.20;;;12.90;99.90;;;;;;5007778;28;21025;-71
2021/05/23 09:02:59;;;;;;;5.97;2.57;;;12.90;99.90;;;;;;5012896;28;20618;-69
2021/05/23 09:05:32;;;;;;;2.47;2.17;;;13.00;99.90;;;;;;4998088;28;20705;-69
2021/05/23 09:08:06;;;;;;;3.13;2.13;;;13.00;99.90;;;;;;5004428;28;20739;-68
2021/05/23 09:10:37;;;;;;;4.20;2.40;;;12.90;99.90;;;;;;5005553;28;20615;-67
2021/05/23 09:13:06;;;;;;;4.90;3.17;;;13.00;99.90;;;;;;5011244;28;20724;-67
2021/05/23 09:15:32;;;;;;;4.40;2.13;;;13.10;99.90;;;;;;5008846;28;20610;-67
2021/05/23 09:18:20;;;;;;;4.47;2.00;;;13.10;99.90;;;;;;5009429;28;20651;-67
2021/05/23 09:20:45;;;;;;;2.87;2.20;;;13.10;99.90;;;;;;4989751;28;20616;-67
2021/05/23 09:23:20;;;;;;;3.23;2.20;;;13.10;99.90;;;;;;5004259;28;20632;-67
2021/05/23 09:25:47;;;;;;;4.63;2.43;;;13.00;99.90;;;;;;5011562;28;20242;-67
2021/05/23 09:28:15;;;;;;;4.07;2.13;;;13.00;99.90;;;;;;5003847;28;20687;-69
2021/05/23 09:30:46;;;;;;;2.80;2.53;;;13.00;99.90;;;;;;5005747;28;20623;-69
2021/05/23 09:33:19;;;;;;;2.60;2.03;;;13.00;99.90;;;;;;5004421;28;20678;-68
2021/05/23 09:35:45;;;;;;;5.57;2.60;;;13.00;99.90;;;;;;5007111;28;21243;-68
2021/05/23 09:38:14;;;;;;;5.20;2.10;;;13.00;99.90;;;;;;5003031;28;21312;-68
2021/05/23 09:40:42;;;;;;;4.33;2.03;;;13.00;99.90;;;;;;5004066;28;20522;-68
2021/05/23 09:43:18;;;;;;;4.00;2.17;;;13.00;99.90;;;;;;5015127;28;20674;-68
2021/05/23 09:45:51;;;;;;;4.00;1.93;;;13.10;99.90;;;;;;4994143;28;20688;-68
2021/05/23 09:48:27;;;;;;;2.27;2.07;;;13.00;99.90;;;;;;5007711;28;20677;-67
2021/05/23 09:51:08;;;;;;;2.00;1.67;;;13.10;99.90;;;;;;5005809;28;20633;-68
2021/05/23 09:53:34;;;;;;;3.63;1.90;;;13.20;99.90;;;;;;4999973;28;20910;-67
2021/05/23 09:56:09;;;;;;;2.30;1.80;;;13.20;99.90;;;;;;5008738;28;20607;-68
2021/05/23 09:58:47;;;;;;;4.23;2.17;;;13.30;99.90;;;;;;5005425;28;21103;-67
2021/05/23 10:01:28;;;;;;;3.93;1.80;;;13.40;99.90;;;;;;5005801;28;21193;-68
2021/05/23 10:04:01;;;;;;;2.40;2.00;;;13.50;99.90;;;;;;4993296;28;21042;-67
2021/05/23 10:06:28;;;;;;;5.70;2.30;;;13.50;99.90;;;;;;5008052;28;20720;-69
2021/05/23 10:08:55;;;;;;;3.57;1.90;;;13.60;99.90;;;;;;5013848;28;20708;-70
2021/05/23 10:11:22;;;;;;;3.60;1.80;;;13.70;99.90;;;;;;4992922;28;21390;-68
2021/05/23 10:13:48;;;;;;;2.97;2.70;;;13.80;99.90;;;;;;4985478;28;20673;-70
2021/05/23 10:16:14;;;;;;;3.20;1.60;;;13.90;99.90;;;;;;5004467;28;21174;-70
2021/05/23 10:18:40;;;;;;;1.90;1.50;;;14.00;99.90;;;;;;5011396;28;20751;-70
2021/05/23 10:21:07;;;;;;;2.57;1.90;;;14.00;99.90;;;;;;5007862;28;20612;-70
2021/05/23 10:23:36;;;;;;;2.00;1.60;;;14.00;99.90;;;;;;5007577;28;20627;-70
2021/05/23 10:26:05;;;;;;;3.37;1.83;;;14.00;99.90;;;;;;5019067;28;20603;-70
2021/05/23 10:28:35;;;;;;;4.30;1.70;;;13.90;99.90;;;;;;5008017;28;20662;-70
2021/05/23 10:31:04;;;;;;;1.73;1.50;;;13.90;99.90;;;;;;5005799;28;20999;-71
2021/05/23 10:33:29;;;;;;;2.90;1.63;;;13.90;99.90;;;;;;5012319;28;20628;-70
2021/05/23 10:35:55;;;;;;;2.40;1.80;;;14.00;99.90;;;;;;5010589;28;20623;-69
2021/05/23 10:38:23;;;;;;;2.40;1.50;;;14.10;99.90;;;;;;5009623;28;20959;-69
2021/05/23 10:40:55;;;;;;;2.23;1.70;;;14.20;99.90;;;;;;5012607;28;20284;-70
2021/05/23 10:43:26;;;;;;;3.57;1.80;;;14.20;99.90;;;;;;5012914;28;20652;-70
2021/05/23 10:46:10;;;;;;;2.80;1.43;;;14.20;99.90;;;;;;5009928;28;20631;-70
2021/05/23 10:48:37;;;;;;;3.80;1.47;;;14.40;99.90;;;;;;5020470;28;20701;-70
2021/05/23 10:51:17;;;;;;;2.60;1.60;;;14.50;99.90;;;;;;5024116;28;20955;-70
2021/05/23 10:53:43;;;;;;;2.87;1.50;;;14.60;99.90;;;;;;5010326;28;20628;-72
2021/05/23 10:56:19;;;;;;;2.10;1.40;;;14.70;99.90;;;;;;5022022;28;20605;-70
2021/05/23 10:59:02;;;;;;;2.10;1.60;;;14.80;99.90;;;;;;5023668;28;20700;-70
2021/05/23 11:01:52;;;;;;;3.40;1.50;;;14.90;99.90;;;;;;5041963;28;20623;-71
2021/05/23 11:04:24;;;;;;;2.07;1.57;;;15.00;99.90;;;;;;5015519;28;21259;-72
2021/05/23 11:06:52;;;;;;;1.83;1.30;;;15.00;99.90;;;;;;5013356;28;20605;-71
2021/05/23 11:09:20;;;;;;;1.87;1.33;;;15.10;99.90;;;;;;5018215;28;20655;-72
2021/05/23 11:11:47;;;;;;;1.77;1.43;;;15.20;99.90;;;;;;5018017;28;20832;-72
2021/05/23 11:14:21;;;;;;;2.60;1.40;;;15.20;99.90;;;;;;5014818;28;20678;-72
2021/05/23 11:16:58;;;;;;;2.63;1.50;;;15.30;99.90;;;;;;5020688;28;20657;-73
2021/05/23 11:19:25;;;;;;;1.40;1.30;;;15.40;99.90;;;;;;5022891;28;20752;-73
2021/05/23 11:21:54;;;;;;;3.20;1.67;;;15.50;99.90;;;;;;5024175;28;20622;-73
2021/05/23 11:24:32;;;;;;;1.70;1.60;;;15.50;99.90;;;;;;5015743;28;20631;-70
2021/05/23 11:27:17;;;;;;;1.63;1.30;;;15.50;99.90;;;;;;5016089;28;20611;-69
2021/05/23 11:29:50;;;;;;;1.60;1.47;;;15.60;99.90;;;;;;5013297;28;20639;-69
2021/05/23 11:32:17;;;;;;;2.33;1.40;;;15.50;99.90;;;;;;5012130;28;20610;-69
2021/05/23 11:34:43;;;;;;;1.80;1.33;;;15.50;99.90;;;;;;5022319;28;21750;-69
2021/05/23 11:37:09;;;;;;;2.53;1.30;;;15.50;99.90;;;;;;5012044;28;20639;-68
2021/05/23 11:39:34;;;;;;;1.93;1.50;;;15.60;99.90;;;;;;5015478;28;21272;-66
2021/05/23 11:42:03;;;;;;;1.40;1.30;;;15.70;99.90;;;;;;5015491;28;20283;-66
2021/05/23 11:44:39;;;;;;;3.00;1.40;;;15.80;99.90;;;;;;5015693;28;20224;-66
2021/05/23 11:47:07;;;;;;;1.50;1.40;;;15.90;99.90;;;;;;5014165;28;20656;-67
2021/05/23 11:49:34;;;;;;;2.07;1.10;;;15.90;99.90;;;;;;5014219;28;20679;-67
2021/05/23 11:52:02;;;;;;;2.47;1.33;;;16.00;99.90;;;;;;5012051;28;20615;-67
2021/05/23 11:54:28;;;;;;;1.43;1.27;;;16.00;99.90;;;;;;5012789;28;20644;-69
2021/05/23 11:56:53;;;;;;;1.73;1.10;;;16.00;99.90;;;;;;5010732;28;20740;-69
2021/05/23 11:59:19;;;;;;;3.50;1.40;;;16.00;99.90;;;;;;5014824;28;20650;-69
2021/05/23 12:01:54;;;;;;;1.77;1.20;;;16.00;99.90;;;;;;5017256;28;20635;-67
2021/05/23 12:04:20;;;;;;;2.80;1.10;;;16.10;99.90;;;;;;5019976;28;20212;-67
2021/05/23 12:06:55;;;;;;;1.30;1.20;;;16.10;99.90;;;;;;5013232;28;20618;-69
2021/05/23 12:09:25;;;;;;;1.67;1.50;;;16.20;99.90;;;;;;5017647;28;20214;-69
2021/05/23 12:11:56;;;;;;;1.93;1.50;;;16.30;99.90;;;;;;5019211;28;20660;-68
2021/05/23 12:14:32;;;;;;;2.60;1.30;;;16.30;99.90;;;;;;5030455;28;20641;-68
2021/05/23 12:17:09;;;;;;;1.97;1.37;;;16.30;99.90;;;;;;5014139;28;20620;-68
2021/05/23 12:19:49;;;;;;;2.10;1.57;;;16.40;99.90;;;;;;5019146;28;20665;-68
2021/05/23 12:22:29;;;;;;;2.90;2.07;;;16.50;99.90;;;;;;5016367;28;20955;-68
2021/05/23 12:24:58;;;;;;;3.70;1.37;;;16.50;99.90;;;;;;5014730;28;22590;-67
2021/05/23 12:27:35;;;;;;;1.27;1.17;;;16.60;99.90;;;;;;5018956;28;21016;-68
2021/05/23 12:30:14;;;;;;;2.40;1.30;;;16.70;99.90;;;;;;5019846;28;20651;-68
2021/05/23 12:33:00;;;;;;;1.50;1.40;;;16.80;99.90;;;;;;5014090;28;20611;-68
2021/05/23 12:35:29;;;;;;;2.20;1.30;;;16.80;99.90;;;;;;5019151;28;20679;-68
2021/05/23 12:37:57;;;;;;;3.10;1.30;;;16.80;99.90;;;;;;5017571;28;21063;-68
2021/05/23 12:40:29;;;;;;;1.53;1.30;;;16.80;99.90;;;;;;5017189;28;20623;-68
2021/05/23 12:43:13;;;;;;;1.50;1.40;;;16.80;99.90;;;;;;5017251;28;20634;-68
2021/05/23 12:45:43;;;;;;;2.33;1.40;;;16.90;99.90;;;;;;5015562;28;20619;-68
2021/05/23 12:48:11;;;;;;;1.37;1.27;;;16.90;99.90;;;;;;5016759;28;20720;-68
2021/05/23 12:50:48;;;;;;;2.23;1.80;;;16.90;99.90;;;;;;5012706;28;20596;-67
2021/05/23 12:53:24;;;;;;;2.87;1.50;;;16.90;99.90;;;;;;5007381;28;20631;-69